Eastern Wv Regional Shepherd Field Martinsburg US
ICAO: KMRB
IATA: MRB
Category: Medium
Scheduled Services: No

Elevation: 565 ft
TransAlt. 18000 ft.

Airport Communications:
POTOMAC APP/DEP:126.1
ASOS:119.925
POTOMAC CLNC DEL:132.075
CTAF:124.3
GND:121.8
PIKESIDE CON ANG:29.7
ELKINS RDO:122.45
MARTINSBURG TWR:124.3
UNICOM:122.95

KMRB Zoom In..

If you have problems with the map follow the link
https://www.worldairports.se/pages/airport.php?
ICAO=KMRB

Runways:

(A) RW 08 length 8815 ft width 150 ft
---- / hdg 79

(B) RW 26 length 8815 ft width 150 ft
ILS 108.30 / hdg 259

Location; KMRB
Day. 19 / Time. 21.53 Zulu
* Altimeter: 29.83
* Temperature: 30° c. 86°f.
* Wind from: 190° Speed 10 kn with Gusts up to 19 kn.
Dewpoint: 18° c.
Visibility: 10 Statute Miles.
Clouds: Clear (automated report).

KMRB 192153Z AUTO 19010G19KT 10SM CLR 30/18 A2983 RMK AO2 LTG DSNT N SLP097 T03000178


Wind From 190°
Speed 10 kn.

 
 
jpsmedia.com for Web Design worldairports.se 2019   terms of use